createdAt,value
2022-12-04T00:03:20.756Z,7.10
2022-12-04T00:05:47.644Z,7.10
2022-12-04T00:08:14.709Z,7.40
2022-12-04T00:10:44.427Z,7.10
2022-12-04T00:13:11.712Z,7.20
2022-12-04T00:15:43.128Z,7.10
2022-12-04T00:18:09.951Z,7.30
2022-12-04T00:20:40.850Z,7.20
2022-12-04T00:23:07.774Z,7.10
2022-12-04T00:25:40.751Z,7.20
2022-12-04T00:28:08.271Z,7.10
2022-12-04T00:30:35.042Z,7.20
2022-12-04T00:33:01.969Z,7.20
2022-12-04T00:35:28.706Z,7.20
2022-12-04T00:37:55.476Z,7.30
2022-12-04T00:40:22.320Z,7.10
2022-12-04T00:42:49.130Z,7.10
2022-12-04T00:45:15.909Z,7.10
2022-12-04T00:47:42.746Z,7.10
2022-12-04T00:50:10.034Z,7.20
2022-12-04T00:52:36.767Z,7.20
2022-12-04T00:55:04.486Z,7.10
2022-12-04T00:57:31.443Z,7.10
2022-12-04T00:59:58.216Z,7.20
2022-12-04T01:02:25.026Z,7.20
2022-12-04T01:04:51.843Z,7.60
2022-12-04T01:07:18.670Z,7.10
2022-12-04T01:09:45.440Z,7.10
2022-12-04T01:12:16.165Z,7.10
2022-12-04T01:14:46.052Z,7.20
2022-12-04T01:17:12.851Z,7.10
2022-12-04T01:19:41.196Z,7.20
2022-12-04T01:22:07.908Z,7.20
2022-12-04T01:24:34.712Z,7.30
2022-12-04T01:27:01.723Z,7.20
2022-12-04T01:29:28.501Z,7.30
2022-12-04T01:31:55.460Z,7.20
2022-12-04T01:34:22.294Z,7.20
2022-12-04T01:36:49.032Z,7.10
2022-12-04T01:39:15.786Z,7.10
2022-12-04T01:41:42.696Z,7.20
2022-12-04T01:44:17.671Z,7.00
2022-12-04T01:46:51.937Z,7.10
2022-12-04T01:49:24.816Z,7.10
2022-12-04T01:51:55.957Z,7.00
2022-12-04T01:54:34.210Z,7.10
2022-12-04T01:57:13.495Z,7.10
2022-12-04T01:59:52.907Z,7.20
2022-12-04T02:02:26.031Z,7.20
2022-12-04T02:04:53.376Z,7.10
2022-12-04T02:07:20.437Z,7.30
2022-12-04T02:09:53.951Z,7.20
2022-12-04T02:12:32.794Z,7.20
2022-12-04T02:15:17.674Z,7.20
2022-12-04T02:18:08.535Z,7.20
2022-12-04T02:20:51.243Z,7.20
2022-12-04T02:23:28.571Z,7.10
2022-12-04T02:26:13.076Z,7.10
2022-12-04T02:29:12.332Z,7.10
2022-12-04T02:32:02.078Z,7.10
2022-12-04T02:34:37.184Z,7.20
2022-12-04T02:37:30.645Z,7.20
2022-12-04T02:40:11.509Z,7.30
2022-12-04T02:43:11.397Z,7.20
2022-12-04T02:45:44.694Z,7.10
2022-12-04T02:48:14.653Z,7.30
2022-12-04T02:50:41.747Z,7.20
2022-12-04T02:53:17.684Z,7.20
2022-12-04T02:55:49.964Z,7.20
2022-12-04T02:58:24.717Z,7.20
2022-12-04T03:00:54.323Z,7.10
2022-12-04T03:03:26.538Z,7.00
2022-12-04T03:06:04.364Z,7.30
2022-12-04T03:08:45.685Z,7.10
2022-12-04T03:11:12.760Z,7.10
2022-12-04T03:14:05.056Z,7.20
2022-12-04T03:16:38.506Z,7.20
2022-12-04T03:19:19.500Z,7.10
2022-12-04T03:21:56.764Z,7.20
2022-12-04T03:24:48.005Z,7.30
2022-12-04T03:27:26.167Z,7.20
2022-12-04T03:30:06.928Z,7.20
2022-12-04T03:32:40.556Z,7.30
2022-12-04T03:35:18.952Z,7.20
2022-12-04T03:38:11.829Z,7.10
2022-12-04T03:40:55.356Z,7.20
2022-12-04T03:43:34.136Z,7.10
2022-12-04T03:46:09.949Z,7.20
2022-12-04T03:49:13.965Z,7.10
2022-12-04T03:52:17.450Z,7.20
2022-12-04T03:54:50.497Z,7.20
2022-12-04T03:57:25.108Z,7.20
2022-12-04T04:00:05.856Z,7.20
2022-12-04T04:02:41.415Z,7.10
2022-12-04T04:05:14.766Z,7.20
2022-12-04T04:07:49.081Z,7.20
2022-12-04T04:10:19.981Z,7.10
2022-12-04T04:13:12.677Z,7.10
2022-12-04T04:16:03.859Z,7.10
2022-12-04T04:18:51.421Z,7.10
2022-12-04T04:21:47.158Z,7.10
2022-12-04T04:24:29.761Z,7.00
2022-12-04T04:26:58.828Z,7.10
2022-12-04T04:29:26.316Z,7.10
2022-12-04T04:32:10.025Z,7.10
2022-12-04T04:34:49.238Z,7.10
2022-12-04T04:37:25.226Z,7.10
2022-12-04T04:40:05.731Z,7.20
2022-12-04T04:42:51.005Z,7.20
2022-12-04T04:45:35.775Z,7.30
2022-12-04T04:48:14.860Z,7.40
2022-12-04T04:50:42.923Z,7.40
2022-12-04T04:53:15.504Z,7.30
2022-12-04T04:55:43.634Z,7.30
2022-12-04T04:58:14.595Z,7.30
2022-12-04T05:00:50.911Z,7.30
2022-12-04T05:03:17.698Z,7.30
2022-12-04T05:05:44.507Z,7.20
2022-12-04T05:08:11.357Z,7.20
2022-12-04T05:10:38.083Z,7.30
2022-12-04T05:13:04.843Z,7.30
2022-12-04T05:15:31.716Z,7.70
2022-12-04T05:17:58.465Z,7.30
2022-12-04T05:20:25.258Z,7.30
2022-12-04T05:22:52.085Z,7.30
2022-12-04T05:25:18.968Z,7.50
2022-12-04T05:27:46.032Z,7.30
2022-12-04T05:30:13.176Z,7.30
2022-12-04T05:32:40.210Z,7.30
2022-12-04T05:35:11.325Z,7.30
2022-12-04T05:37:40.242Z,7.40
2022-12-04T05:40:09.285Z,7.40
2022-12-04T05:42:36.105Z,7.40
2022-12-04T05:45:02.950Z,7.50
2022-12-04T05:47:29.809Z,7.50
2022-12-04T05:49:56.888Z,7.40
2022-12-04T05:52:24.010Z,7.50
2022-12-04T05:54:50.753Z,7.40
2022-12-04T05:57:17.549Z,7.40
2022-12-04T05:59:44.357Z,7.40
2022-12-04T06:02:11.244Z,7.40
2022-12-04T06:04:38.564Z,7.40
2022-12-04T06:07:05.373Z,7.40
2022-12-04T06:09:32.223Z,7.40
2022-12-04T06:11:59.068Z,7.40
2022-12-04T06:14:26.075Z,7.40
2022-12-04T06:16:52.921Z,7.30
2022-12-04T06:19:20.884Z,7.40
2022-12-04T06:21:50.343Z,7.30
2022-12-04T06:24:25.050Z,7.40
2022-12-04T06:29:43.064Z,7.30
2022-12-04T06:32:10.012Z,7.30
2022-12-04T06:34:37.123Z,7.30
2022-12-04T06:37:03.967Z,7.30
2022-12-04T06:39:30.770Z,7.30
2022-12-04T06:41:57.520Z,7.30
2022-12-04T06:44:24.268Z,7.10
2022-12-04T06:46:51.135Z,7.30
2022-12-04T06:49:17.922Z,7.20
2022-12-04T06:51:44.760Z,7.30
2022-12-04T06:54:12.022Z,7.30
2022-12-04T06:56:38.811Z,7.30
2022-12-04T06:59:05.781Z,7.40
2022-12-04T07:01:34.790Z,7.40
2022-12-04T07:04:03.975Z,7.40
2022-12-04T07:06:36.274Z,7.40
2022-12-04T07:09:15.302Z,7.30
2022-12-04T07:11:43.274Z,7.30
2022-12-04T07:14:10.934Z,7.30
2022-12-04T07:16:41.500Z,7.40
2022-12-04T07:19:11.014Z,7.30
2022-12-04T07:21:37.967Z,7.30
2022-12-04T07:24:05.855Z,7.30
2022-12-04T07:26:32.825Z,7.30
2022-12-04T07:29:00.245Z,7.30
2022-12-04T07:31:29.380Z,7.20
2022-12-04T07:33:58.336Z,7.30
2022-12-04T07:36:26.505Z,7.20
2022-12-04T07:38:55.538Z,7.30
2022-12-04T07:41:22.599Z,7.30
2022-12-04T07:43:49.449Z,7.20
2022-12-04T07:46:19.239Z,7.20
2022-12-04T07:48:46.669Z,7.20
2022-12-04T07:51:19.976Z,7.10
2022-12-04T07:53:47.375Z,7.10
2022-12-04T07:56:15.189Z,7.10
2022-12-04T07:58:42.511Z,7.20
2022-12-04T08:01:21.934Z,7.10
2022-12-04T08:03:51.505Z,7.10
2022-12-04T08:06:20.433Z,7.10
2022-12-04T08:08:48.194Z,7.30
2022-12-04T08:11:17.820Z,7.30
2022-12-04T08:13:45.465Z,7.20
2022-12-04T08:16:13.999Z,7.20
2022-12-04T08:18:41.733Z,7.20
2022-12-04T08:21:14.020Z,7.30
2022-12-04T08:23:42.568Z,7.40
2022-12-04T08:26:10.150Z,7.20
2022-12-04T08:28:37.456Z,7.30
2022-12-04T08:31:13.789Z,7.30
2022-12-04T08:33:41.983Z,7.30
2022-12-04T08:36:12.625Z,7.30
2022-12-04T08:38:39.648Z,7.30
2022-12-04T08:41:08.121Z,7.40
2022-12-04T08:43:35.124Z,7.40
2022-12-04T08:46:07.992Z,7.60
2022-12-04T08:48:35.195Z,7.60
2022-12-04T08:51:04.396Z,7.50
2022-12-04T08:53:32.433Z,7.60
2022-12-04T08:56:01.336Z,7.70
2022-12-04T08:58:28.172Z,7.60
2022-12-04T09:00:55.021Z,7.60
2022-12-04T09:03:26.201Z,7.70
2022-12-04T09:06:00.201Z,7.60
2022-12-04T09:08:27.019Z,7.60
2022-12-04T09:10:53.952Z,7.60
2022-12-04T09:13:20.992Z,7.60
2022-12-04T09:15:47.882Z,7.50
2022-12-04T09:18:14.725Z,7.40
2022-12-04T09:20:41.483Z,7.50
2022-12-04T09:23:08.226Z,7.50
2022-12-04T09:25:36.824Z,7.50
2022-12-04T09:28:04.106Z,7.50
2022-12-04T09:30:30.973Z,7.50
2022-12-04T09:32:57.824Z,7.50
2022-12-04T09:35:24.624Z,7.60
2022-12-04T09:37:51.396Z,7.60
2022-12-04T09:40:35.141Z,7.60
2022-12-04T09:43:10.056Z,7.60
2022-12-04T09:45:47.719Z,7.60
2022-12-04T09:48:17.846Z,7.60
2022-12-04T09:50:45.766Z,7.60
2022-12-04T09:53:12.605Z,7.50
2022-12-04T09:55:46.304Z,7.60
2022-12-04T09:58:18.153Z,7.60
2022-12-04T10:00:47.483Z,7.60
2022-12-04T10:03:20.786Z,7.60
2022-12-04T10:05:56.546Z,7.60
2022-12-04T10:08:31.162Z,7.60
2022-12-04T10:11:03.661Z,7.70
2022-12-04T10:13:51.720Z,7.70
2022-12-04T10:16:22.828Z,7.70
2022-12-04T10:19:30.856Z,7.70
2022-12-04T10:22:00.356Z,7.60
2022-12-04T10:24:38.293Z,7.60
2022-12-04T10:27:32.729Z,7.60
2022-12-04T10:30:04.478Z,7.60
2022-12-04T10:32:35.164Z,7.70
2022-12-04T10:35:24.922Z,7.70
2022-12-04T10:37:59.552Z,7.80
2022-12-04T10:40:31.465Z,7.70
2022-12-04T10:43:19.773Z,7.70
2022-12-04T10:45:46.697Z,7.70
2022-12-04T10:48:24.213Z,7.70
2022-12-04T10:50:51.093Z,7.80
2022-12-04T10:53:25.197Z,7.70
2022-12-04T10:55:52.074Z,7.80
2022-12-04T10:58:20.562Z,7.70
2022-12-04T11:01:03.010Z,7.80
2022-12-04T11:03:30.032Z,7.80
2022-12-04T11:06:06.129Z,7.80
2022-12-04T11:08:48.920Z,7.80
2022-12-04T11:11:22.501Z,7.80
2022-12-04T11:13:49.387Z,7.90
2022-12-04T11:16:40.554Z,7.90
2022-12-04T11:19:31.210Z,7.90
2022-12-04T11:22:04.503Z,7.90
2022-12-04T11:24:36.833Z,7.90
2022-12-04T11:27:06.035Z,7.90
2022-12-04T11:29:38.219Z,7.90
2022-12-04T11:32:08.013Z,8.00
2022-12-04T11:34:38.984Z,7.90
2022-12-04T11:37:17.932Z,8.00
2022-12-04T11:39:45.883Z,8.10
2022-12-04T11:42:22.943Z,8.00
2022-12-04T11:44:55.021Z,8.00
2022-12-04T11:47:25.416Z,7.90
2022-12-04T11:50:13.643Z,7.90
2022-12-04T11:52:56.646Z,8.00
2022-12-04T11:55:30.620Z,7.90
2022-12-04T11:58:14.713Z,7.90
2022-12-04T12:01:23.048Z,8.00
2022-12-04T12:03:58.612Z,8.00
2022-12-04T12:07:24.160Z,8.00
2022-12-04T12:09:58.008Z,8.00
2022-12-04T12:12:39.891Z,8.00
2022-12-04T12:15:14.954Z,8.00
2022-12-04T12:17:46.966Z,8.00
2022-12-04T12:20:23.732Z,8.10
2022-12-04T12:23:23.640Z,8.00
2022-12-04T12:26:10.607Z,8.10
2022-12-04T12:29:02.285Z,8.10
2022-12-04T12:31:44.130Z,8.10
2022-12-04T12:34:29.017Z,8.10
2022-12-04T12:37:01.014Z,8.10
2022-12-04T12:39:53.990Z,8.20
2022-12-04T12:42:26.967Z,8.20
2022-12-04T12:44:59.728Z,8.10
2022-12-04T12:47:32.204Z,8.10
2022-12-04T12:50:21.173Z,8.00
2022-12-04T12:53:12.059Z,8.00
2022-12-04T12:55:47.024Z,8.00
2022-12-04T12:58:46.004Z,8.00
2022-12-04T13:01:22.559Z,6.10
2022-12-04T13:03:52.299Z,8.00
2022-12-04T13:06:25.294Z,8.00
2022-12-04T13:09:13.301Z,8.00
2022-12-04T13:11:41.748Z,8.00
2022-12-04T13:14:13.233Z,8.20
2022-12-04T13:16:53.987Z,8.10
2022-12-04T13:19:31.085Z,8.10
2022-12-04T13:22:22.401Z,8.20
2022-12-04T13:25:10.224Z,8.10
2022-12-04T13:28:13.706Z,8.10
2022-12-04T13:31:05.845Z,8.10
2022-12-04T13:33:44.947Z,8.10
2022-12-04T13:36:11.678Z,8.10
2022-12-04T13:39:00.049Z,8.10
2022-12-04T13:41:28.368Z,8.10
2022-12-04T13:43:57.733Z,8.20
2022-12-04T13:46:34.990Z,8.20
2022-12-04T13:49:20.246Z,8.20
2022-12-04T13:51:48.799Z,8.20
2022-12-04T13:54:15.546Z,8.20
2022-12-04T13:56:54.205Z,8.20
2022-12-04T13:59:34.497Z,8.30
2022-12-04T14:02:22.864Z,8.30
2022-12-04T14:04:54.099Z,8.30
2022-12-04T14:07:42.758Z,8.30
2022-12-04T14:10:15.574Z,8.30
2022-12-04T14:12:49.406Z,8.30
2022-12-04T14:15:25.524Z,8.30
2022-12-04T14:18:10.672Z,8.20
2022-12-04T14:20:39.612Z,9.60
2022-12-04T14:23:15.660Z,8.30
2022-12-04T14:25:42.753Z,8.20
2022-12-04T14:28:37.294Z,8.10
2022-12-04T14:31:37.610Z,8.20
2022-12-04T14:34:27.256Z,8.20
2022-12-04T14:36:56.703Z,8.20
2022-12-04T14:39:30.157Z,8.20
2022-12-04T14:42:28.014Z,8.10
2022-12-04T14:44:57.892Z,8.20
2022-12-04T14:47:46.065Z,8.10
2022-12-04T14:50:34.764Z,8.20
2022-12-04T14:53:25.782Z,8.20
2022-12-04T14:56:17.688Z,8.30
2022-12-04T14:58:45.022Z,8.20
2022-12-04T15:01:29.834Z,8.30
2022-12-04T15:04:01.348Z,8.30
2022-12-04T15:06:33.618Z,8.50
2022-12-04T15:09:21.737Z,8.50
2022-12-04T15:12:10.403Z,8.40
2022-12-04T15:14:48.549Z,8.30
2022-12-04T15:17:17.636Z,8.30
2022-12-04T15:19:44.848Z,8.20
2022-12-04T15:22:23.160Z,8.20
2022-12-04T15:24:51.662Z,8.10
2022-12-04T15:27:30.586Z,8.30
2022-12-04T15:30:01.030Z,8.30
2022-12-04T15:32:28.861Z,8.30
2022-12-04T15:35:02.956Z,8.30
2022-12-04T15:37:31.597Z,8.30
2022-12-04T15:39:59.816Z,8.30
2022-12-04T15:42:29.589Z,8.30
2022-12-04T15:45:19.262Z,8.40
2022-12-04T15:47:45.944Z,8.30
2022-12-04T15:50:15.499Z,8.30
2022-12-04T15:52:54.274Z,8.20
2022-12-04T15:55:23.181Z,8.10
2022-12-04T15:58:07.830Z,8.20
2022-12-04T16:00:37.752Z,8.10
2022-12-04T16:03:31.389Z,8.10
2022-12-04T16:06:06.585Z,8.10
2022-12-04T16:08:38.865Z,8.10
2022-12-04T16:11:07.258Z,8.10
2022-12-04T16:13:37.479Z,8.30
2022-12-04T16:16:12.695Z,8.20
2022-12-04T16:18:40.450Z,8.20
2022-12-04T16:21:15.727Z,8.10
2022-12-04T16:23:42.610Z,8.00
2022-12-04T16:26:20.200Z,8.00
2022-12-04T16:28:48.080Z,8.10
2022-12-04T16:31:17.757Z,8.00
2022-12-04T16:33:44.672Z,8.10
2022-12-04T16:36:11.722Z,8.10
2022-12-04T16:38:38.578Z,8.00
2022-12-04T16:41:06.026Z,8.00
2022-12-04T16:43:32.884Z,8.00
2022-12-04T16:46:01.434Z,8.00
2022-12-04T16:48:29.677Z,8.00
2022-12-04T16:50:56.496Z,8.00
2022-12-04T16:53:23.527Z,8.10
2022-12-04T16:55:51.818Z,8.10
2022-12-04T16:58:20.108Z,8.10
2022-12-04T17:00:53.990Z,8.10
2022-12-04T17:03:30.059Z,8.10
2022-12-04T17:05:58.192Z,8.00
2022-12-04T17:08:25.106Z,7.90
2022-12-04T17:10:52.246Z,7.90
2022-12-04T17:13:20.852Z,7.80
2022-12-04T17:15:48.329Z,8.10
2022-12-04T17:18:20.722Z,8.10
2022-12-04T17:20:48.016Z,7.90
2022-12-04T17:23:14.902Z,7.90
2022-12-04T17:25:41.700Z,8.00
2022-12-04T17:28:08.496Z,7.90
2022-12-04T17:30:36.381Z,7.90
2022-12-04T17:33:04.311Z,7.90
2022-12-04T17:35:31.529Z,8.00
2022-12-04T17:38:03.875Z,7.90
2022-12-04T17:40:32.843Z,8.10
2022-12-04T17:42:59.945Z,8.00
2022-12-04T17:45:26.873Z,8.10
2022-12-04T17:47:53.606Z,8.10
2022-12-04T17:50:20.476Z,8.10
2022-12-04T17:52:47.237Z,8.20
2022-12-04T17:55:14.094Z,8.20
2022-12-04T17:57:40.913Z,8.10
2022-12-04T18:00:08.676Z,8.10
2022-12-04T18:02:36.461Z,8.10
2022-12-04T18:05:03.448Z,8.20
2022-12-04T18:07:31.409Z,8.20
2022-12-04T18:09:58.508Z,8.10
2022-12-04T18:12:25.585Z,8.10
2022-12-04T18:14:53.477Z,8.30
2022-12-04T18:17:21.733Z,8.40
2022-12-04T18:19:48.603Z,8.00
2022-12-04T18:22:15.364Z,9.00
2022-12-04T18:24:42.128Z,8.20
2022-12-04T18:27:09.050Z,8.10
2022-12-04T18:29:35.907Z,8.10
2022-12-04T18:32:02.765Z,8.10
2022-12-04T18:34:29.556Z,8.00
2022-12-04T18:36:56.347Z,8.10
2022-12-04T18:39:25.568Z,8.00
2022-12-04T18:41:55.949Z,7.90
2022-12-04T18:44:23.596Z,7.90
2022-12-04T18:46:50.557Z,7.90
2022-12-04T18:49:17.313Z,7.90
2022-12-04T18:51:49.925Z,7.90
2022-12-04T18:54:22.358Z,7.80
2022-12-04T18:56:49.682Z,7.80
2022-12-04T18:59:22.255Z,7.90
2022-12-04T19:01:53.415Z,7.80
2022-12-04T19:04:22.174Z,7.70
2022-12-04T19:06:51.962Z,7.70
2022-12-04T19:09:35.489Z,7.70
2022-12-04T19:12:08.977Z,7.80
2022-12-04T19:14:35.784Z,7.80
2022-12-04T19:17:02.598Z,7.80
2022-12-04T19:19:31.812Z,7.70
2022-12-04T19:21:59.187Z,7.80
2022-12-04T19:24:25.954Z,7.80
2022-12-04T19:26:54.329Z,7.80
2022-12-04T19:29:21.074Z,7.70
2022-12-04T19:31:47.878Z,7.70
2022-12-04T19:34:14.832Z,7.70
2022-12-04T19:36:42.602Z,7.70
2022-12-04T19:39:10.219Z,7.70
2022-12-04T19:41:41.300Z,7.70
2022-12-04T19:44:40.215Z,7.70
2022-12-04T19:46:56.405Z,7.80
2022-12-04T19:49:23.201Z,7.60
2022-12-04T19:51:50.094Z,7.70
2022-12-04T19:54:17.724Z,7.70
2022-12-04T19:56:50.995Z,7.80
2022-12-04T19:59:19.791Z,7.60
2022-12-04T20:01:46.801Z,7.70
2022-12-04T20:04:13.610Z,7.60
2022-12-04T20:06:43.001Z,7.70
2022-12-04T20:09:14.410Z,7.70
2022-12-04T20:11:41.523Z,7.80
2022-12-04T20:14:09.123Z,7.80
2022-12-04T20:16:37.572Z,7.80
2022-12-04T20:19:06.480Z,7.70
2022-12-04T20:21:33.707Z,7.70
2022-12-04T20:24:04.107Z,7.50
2022-12-04T20:26:34.131Z,7.50
2022-12-04T20:29:01.958Z,7.50
2022-12-04T20:31:31.973Z,7.50
2022-12-04T20:34:00.574Z,7.50
2022-12-04T20:36:28.918Z,7.40
2022-12-04T20:38:59.424Z,7.40
2022-12-04T20:41:28.184Z,7.50
2022-12-04T20:43:55.465Z,7.60
2022-12-04T20:46:25.593Z,7.60
2022-12-04T20:48:53.668Z,7.60
2022-12-04T20:51:24.859Z,7.50
2022-12-04T20:53:53.239Z,7.60
2022-12-04T20:56:21.849Z,7.60
2022-12-04T20:58:48.854Z,7.60
2022-12-04T21:01:17.724Z,7.70
2022-12-04T21:03:45.374Z,7.70
2022-12-04T21:06:14.915Z,7.50
2022-12-04T21:08:55.800Z,7.50
2022-12-04T21:11:26.721Z,7.50
2022-12-04T21:14:13.744Z,7.50
2022-12-04T21:16:41.253Z,7.50
2022-12-04T21:19:09.718Z,7.50
2022-12-04T21:21:37.432Z,7.60
2022-12-04T21:24:05.679Z,7.50
2022-12-04T21:26:33.920Z,7.50
2022-12-04T21:29:01.752Z,7.50
2022-12-04T21:31:29.778Z,7.60
2022-12-04T21:33:58.071Z,7.70
2022-12-04T21:36:26.211Z,7.80
2022-12-04T21:38:53.381Z,7.60
2022-12-04T21:41:39.163Z,7.70
2022-12-04T21:44:16.455Z,7.60
2022-12-04T21:46:44.698Z,7.80
2022-12-04T21:49:12.381Z,7.60
2022-12-04T21:51:56.738Z,7.70
2022-12-04T21:54:25.647Z,7.80
2022-12-04T21:56:52.422Z,7.80
2022-12-04T21:59:19.235Z,7.80
2022-12-04T22:01:46.160Z,8.20
2022-12-04T22:04:13.119Z,7.80
2022-12-04T22:06:40.363Z,7.80
2022-12-04T22:09:09.004Z,7.90
2022-12-04T22:11:36.335Z,7.80
2022-12-04T22:14:03.151Z,7.90
2022-12-04T22:16:31.283Z,8.00
2022-12-04T22:18:59.537Z,7.90
2022-12-04T22:21:27.924Z,8.00
2022-12-04T22:23:56.745Z,7.90
2022-12-04T22:26:24.190Z,7.80
2022-12-04T22:28:51.182Z,7.90
2022-12-04T22:31:20.474Z,7.90
2022-12-04T22:33:49.089Z,7.80
2022-12-04T22:36:19.700Z,7.80
2022-12-04T22:39:08.384Z,7.80
2022-12-04T22:41:33.520Z,7.90
2022-12-04T22:44:00.304Z,7.90
2022-12-04T22:46:27.318Z,7.90
2022-12-04T22:48:54.192Z,7.90
2022-12-04T22:51:22.290Z,7.90
2022-12-04T22:53:52.848Z,7.90
2022-12-04T22:56:22.738Z,7.90
2022-12-04T22:58:50.108Z,8.00
2022-12-04T23:01:19.825Z,8.40
2022-12-04T23:03:47.817Z,8.00
2022-12-04T23:06:16.197Z,7.90
2022-12-04T23:08:44.191Z,8.00
2022-12-04T23:11:14.345Z,7.90
2022-12-04T23:13:41.968Z,7.90
2022-12-04T23:16:11.536Z,7.90
2022-12-04T23:18:40.072Z,8.00
2022-12-04T23:21:09.833Z,8.00
2022-12-04T23:23:38.462Z,7.90
2022-12-04T23:26:10.982Z,8.00
2022-12-04T23:28:38.095Z,7.90
2022-12-04T23:31:05.129Z,8.00
2022-12-04T23:33:33.198Z,7.90
2022-12-04T23:36:01.920Z,8.00
2022-12-04T23:38:29.713Z,7.90
2022-12-04T23:41:04.212Z,7.90
2022-12-04T23:43:31.280Z,7.90
2022-12-04T23:45:58.039Z,7.90
2022-12-04T23:48:25.242Z,7.90
2022-12-04T23:50:52.874Z,7.90
2022-12-04T23:53:20.220Z,8.00
2022-12-04T23:56:02.534Z,8.00
2022-12-04T23:58:29.340Z,7.90
